createdAt,value
2022-09-01T00:00:16.120Z,1017.87
2022-09-01T00:05:16.896Z,1017.88
2022-09-01T00:10:17.662Z,1017.89
2022-09-01T00:15:18.395Z,1017.87
2022-09-01T00:20:20.717Z,1017.90
2022-09-01T00:25:19.700Z,1017.91
2022-09-01T00:30:20.412Z,1017.90
2022-09-01T00:35:21.172Z,1017.89
2022-09-01T00:40:21.926Z,1017.85
2022-09-01T00:45:23.164Z,1017.83
2022-09-01T00:50:31.546Z,1017.81
2022-09-01T00:55:24.303Z,1017.82
2022-09-01T01:00:25.063Z,1017.83
2022-09-01T01:05:25.830Z,1017.82
2022-09-01T01:10:26.537Z,1017.80
2022-09-01T01:15:27.232Z,1017.80
2022-09-01T01:20:28.044Z,1017.79
2022-09-01T01:25:28.834Z,1017.78
2022-09-01T01:30:29.617Z,1017.77
2022-09-01T01:35:30.300Z,1017.79
2022-09-01T01:40:31.179Z,1017.82
2022-09-01T01:45:31.982Z,1017.78
2022-09-01T01:50:32.697Z,1017.73
2022-09-01T01:55:33.398Z,1017.69
2022-09-01T02:00:34.160Z,1017.67
2022-09-01T02:05:34.956Z,1017.69
2022-09-01T02:10:35.728Z,1017.69
2022-09-01T02:15:36.469Z,1017.70
2022-09-01T02:20:37.214Z,1017.72
2022-09-01T02:25:49.311Z,1017.74
2022-09-01T02:30:39.586Z,1017.75
2022-09-01T02:35:39.290Z,1017.70
2022-09-01T02:40:40.101Z,1017.69
2022-09-01T02:45:40.853Z,1017.69
2022-09-01T02:50:41.557Z,1017.64
2022-09-01T02:55:42.341Z,1017.62
2022-09-01T03:00:43.091Z,1017.60
2022-09-01T03:05:43.849Z,1017.59
2022-09-01T03:10:44.654Z,1017.55
2022-09-01T03:15:45.332Z,1017.54
2022-09-01T03:20:46.195Z,1017.54
2022-09-01T03:25:46.921Z,1017.51
2022-09-01T03:30:47.618Z,1017.51
2022-09-01T03:35:48.385Z,1017.53
2022-09-01T03:40:49.256Z,1017.50
2022-09-01T03:45:50.059Z,1017.52
2022-09-01T03:50:50.797Z,1017.54
2022-09-01T03:55:51.548Z,1017.55
2022-09-01T04:00:52.326Z,1017.54
2022-09-01T04:05:52.821Z,1017.54
2022-09-01T04:10:54.615Z,1017.51
2022-09-01T04:15:54.490Z,1017.48
2022-09-01T04:20:55.216Z,1017.46
2022-09-01T04:25:55.897Z,1017.45
2022-09-01T04:30:56.551Z,1017.48
2022-09-01T04:36:04.296Z,1017.48
2022-09-01T04:40:57.952Z,1017.53
2022-09-01T04:45:58.758Z,1017.53
2022-09-01T04:50:59.415Z,1017.52
2022-09-01T04:56:00.059Z,1017.56
2022-09-01T05:01:00.836Z,1017.53
2022-09-01T05:06:01.467Z,1017.56
2022-09-01T05:11:02.134Z,1017.57
2022-09-01T05:16:02.863Z,1017.56
2022-09-01T05:21:03.486Z,1017.53
2022-09-01T05:26:04.192Z,1017.54
2022-09-01T05:31:04.877Z,1017.56
2022-09-01T05:36:05.537Z,1017.55
2022-09-01T05:41:06.217Z,1017.60
2022-09-01T05:46:07.540Z,1017.62
2022-09-01T05:51:22.385Z,1017.62
2022-09-01T05:56:09.342Z,1017.70
2022-09-01T06:01:09.001Z,1017.67
2022-09-01T06:06:09.643Z,1017.66
2022-09-01T06:11:10.364Z,1017.66
2022-09-01T06:16:11.122Z,1017.63
2022-09-01T06:21:11.746Z,1017.65
2022-09-01T06:26:12.452Z,1017.63
2022-09-01T06:31:13.171Z,1017.66
2022-09-01T06:36:13.843Z,1017.74
2022-09-01T06:41:14.660Z,1017.77
2022-09-01T06:46:15.447Z,1017.77
2022-09-01T06:51:18.476Z,1017.78
2022-09-01T06:56:17.065Z,1017.85
2022-09-01T07:01:17.801Z,1017.88
2022-09-01T07:11:23.039Z,1017.88
2022-09-01T07:16:41.878Z,1017.88
2022-09-01T07:21:39.179Z,1017.95
2022-09-01T07:26:26.361Z,1017.92
2022-09-01T07:36:26.281Z,1017.91
2022-09-01T07:46:39.260Z,1017.96
2022-09-01T07:51:39.860Z,1017.99
2022-09-01T07:56:24.912Z,1018.00
2022-09-01T08:01:24.606Z,1018.03
2022-09-01T08:06:25.324Z,1018.04
2022-09-01T08:11:58.199Z,1018.06
2022-09-01T08:16:38.967Z,1018.09
2022-09-01T08:21:28.342Z,1018.12
2022-09-01T08:26:28.141Z,1018.08
2022-09-01T08:31:30.749Z,1018.06
2022-09-01T08:36:29.733Z,1018.04
2022-09-01T08:41:31.323Z,1018.05
2022-09-01T08:46:32.080Z,1018.05
2022-09-01T08:51:31.809Z,1018.01
2022-09-01T08:56:32.561Z,1017.98
2022-09-01T09:01:33.309Z,1017.97
2022-09-01T09:06:34.021Z,1017.97
2022-09-01T09:11:34.765Z,1017.94
2022-09-01T09:16:35.446Z,1017.93
2022-09-01T09:21:36.178Z,1017.88
2022-09-01T09:26:44.733Z,1017.87
2022-09-01T09:31:38.471Z,1017.82
2022-09-01T09:36:38.129Z,1017.86
2022-09-01T09:41:38.805Z,1017.83
2022-09-01T09:46:39.602Z,1017.76
2022-09-01T09:51:40.298Z,1017.73
2022-09-01T09:56:40.956Z,1017.78
2022-09-01T10:01:41.640Z,1017.74
2022-09-01T10:06:42.299Z,1017.76
2022-09-01T10:11:42.787Z,1017.74
2022-09-01T10:16:43.488Z,1017.73
2022-09-01T10:21:43.923Z,1017.70
2022-09-01T10:26:44.618Z,1017.68
2022-09-01T10:31:45.289Z,1017.69
2022-09-01T10:36:55.892Z,1017.71
2022-09-01T10:41:46.764Z,1017.64
2022-09-01T10:46:51.377Z,1017.62
2022-09-01T10:52:27.826Z,1017.58
2022-09-01T10:56:52.401Z,1017.59
2022-09-01T11:01:50.049Z,1017.62
2022-09-01T11:11:51.758Z,1017.56
2022-09-01T11:16:51.543Z,1017.59
2022-09-01T11:21:52.306Z,1017.52
2022-09-01T11:26:53.104Z,1017.51
2022-09-01T11:31:53.978Z,1017.46
2022-09-01T11:36:54.771Z,1017.46
2022-09-01T11:41:59.662Z,1017.46
2022-09-01T11:46:57.094Z,1017.51
2022-09-01T11:51:56.832Z,1017.43
2022-09-01T11:56:57.677Z,1017.45
2022-09-01T12:01:58.529Z,1017.45
2022-09-01T12:06:58.803Z,1017.44
2022-09-01T12:11:59.437Z,1017.44
2022-09-01T12:17:00.238Z,1017.41
2022-09-01T12:22:01.060Z,1017.43
2022-09-01T12:27:02.425Z,1017.43
2022-09-01T12:32:03.734Z,1017.42
2022-09-01T12:37:03.379Z,1017.38
2022-09-01T12:42:04.160Z,1017.33
2022-09-01T12:47:04.781Z,1017.34
2022-09-01T12:52:05.488Z,1017.32
2022-09-01T12:57:06.253Z,1017.23
2022-09-01T13:02:09.892Z,1017.20
2022-09-01T13:07:08.951Z,1017.15
2022-09-01T13:12:08.675Z,1017.21
2022-09-01T13:17:12.392Z,1017.16
2022-09-01T13:22:11.621Z,1017.14
2022-09-01T13:27:26.170Z,1017.14
2022-09-01T13:32:27.780Z,1017.10
2022-09-01T13:37:13.023Z,1017.12
2022-09-01T13:42:12.687Z,1017.09
2022-09-01T13:47:29.927Z,1017.08
2022-09-01T13:52:15.017Z,1017.05
2022-09-01T13:57:14.865Z,1017.02
2022-09-01T14:02:15.646Z,1016.99
2022-09-01T14:07:16.246Z,1016.99
2022-09-01T14:12:17.011Z,1016.96
2022-09-01T14:17:18.559Z,1016.93
2022-09-01T14:22:18.208Z,1016.88
2022-09-01T14:27:18.839Z,1016.86
2022-09-01T14:32:19.519Z,1016.79
2022-09-01T14:37:20.182Z,1016.77
2022-09-01T14:42:20.850Z,1016.69
2022-09-01T14:47:21.607Z,1016.66
2022-09-01T14:52:22.313Z,1016.59
2022-09-01T14:57:36.407Z,1016.57
2022-09-01T15:02:24.585Z,1016.57
2022-09-01T15:07:24.199Z,1016.52
2022-09-01T15:12:24.927Z,1016.48
2022-09-01T15:17:25.874Z,1016.43
2022-09-01T15:22:26.344Z,1016.42
2022-09-01T15:27:26.964Z,1016.50
2022-09-01T15:32:28.533Z,1016.51
2022-09-01T15:37:28.327Z,1016.51
2022-09-01T15:42:29.089Z,1016.47
2022-09-01T15:47:29.952Z,1016.47
2022-09-01T15:52:30.803Z,1016.41
2022-09-01T15:57:31.594Z,1016.41
2022-09-01T16:02:32.191Z,1016.37
2022-09-01T16:07:32.948Z,1016.37
2022-09-01T16:12:33.889Z,1016.37
2022-09-01T16:17:34.046Z,1016.38
2022-09-01T16:22:35.070Z,1016.37
2022-09-01T16:27:35.425Z,1016.36
2022-09-01T16:32:36.155Z,1016.32
2022-09-01T16:37:37.187Z,1016.28
2022-09-01T16:42:37.999Z,1016.24
2022-09-01T16:47:45.636Z,1016.21
2022-09-01T16:52:39.280Z,1016.20
2022-09-01T16:57:39.966Z,1016.19
2022-09-01T17:02:40.717Z,1016.19
2022-09-01T17:07:41.469Z,1016.22
2022-09-01T17:12:42.186Z,1016.25
2022-09-01T17:17:42.870Z,1016.23
2022-09-01T17:22:43.617Z,1016.26
2022-09-01T17:27:44.327Z,1016.30
2022-09-01T17:32:48.199Z,1016.37
2022-09-01T17:37:45.575Z,1016.41
2022-09-01T17:42:46.283Z,1016.45
2022-09-01T17:47:47.052Z,1016.53
2022-09-01T17:52:52.732Z,1016.57
2022-09-01T17:57:49.517Z,1016.58
2022-09-01T18:02:49.312Z,1016.60
2022-09-01T18:07:50.128Z,1016.64
2022-09-01T18:12:50.968Z,1016.68
2022-09-01T18:17:53.852Z,1016.70
2022-09-01T18:27:53.898Z,1016.70
2022-09-01T18:32:54.882Z,1016.74
2022-09-01T18:37:54.223Z,1016.84
2022-09-01T18:42:54.976Z,1016.89
2022-09-01T18:47:55.646Z,1016.93
2022-09-01T18:52:56.475Z,1016.94
2022-09-01T18:57:57.718Z,1016.93
2022-09-01T19:02:58.221Z,1016.94
2022-09-01T19:07:58.586Z,1016.96
2022-09-01T19:12:59.331Z,1016.97
2022-09-01T19:18:00.123Z,1016.99
2022-09-01T19:23:00.839Z,1017.00
2022-09-01T19:28:01.626Z,1017.01
2022-09-01T19:33:02.571Z,1017.02
2022-09-01T19:38:03.421Z,1017.01
2022-09-01T19:43:04.145Z,1016.99
2022-09-01T19:48:05.004Z,1016.99
2022-09-01T19:53:05.744Z,1017.04
2022-09-01T19:58:06.491Z,1017.06
2022-09-01T20:03:07.312Z,1017.06
2022-09-01T20:08:08.374Z,1017.09
2022-09-01T20:13:08.739Z,1017.07
2022-09-01T20:18:09.241Z,1017.07
2022-09-01T20:23:10.043Z,1017.06
2022-09-01T20:28:10.775Z,1017.08
2022-09-01T20:33:11.569Z,1017.11
2022-09-01T20:38:12.350Z,1017.14
2022-09-01T20:43:13.738Z,1017.18
2022-09-01T20:48:14.000Z,1017.17
2022-09-01T20:53:14.940Z,1017.16
2022-09-01T20:58:16.811Z,1017.17
2022-09-01T21:03:16.565Z,1017.18
2022-09-01T21:08:17.528Z,1017.22
2022-09-01T21:13:20.677Z,1017.23
2022-09-01T21:18:19.606Z,1017.25
2022-09-01T21:23:20.146Z,1017.21
2022-09-01T21:28:19.601Z,1017.23
2022-09-01T21:33:20.016Z,1017.26
2022-09-01T21:38:20.768Z,1017.26
2022-09-01T21:43:21.586Z,1017.24
2022-09-01T21:48:22.304Z,1017.18
2022-09-01T21:53:23.087Z,1017.17
2022-09-01T21:58:23.962Z,1017.19
2022-09-01T22:03:24.868Z,1017.18
2022-09-01T22:08:25.264Z,1017.16
2022-09-01T22:13:26.178Z,1017.16
2022-09-01T22:18:26.966Z,1017.12
2022-09-01T22:23:31.674Z,1017.09
2022-09-01T22:28:28.351Z,1017.07
2022-09-01T22:33:30.763Z,1017.11
2022-09-01T22:38:29.993Z,1017.09
2022-09-01T22:43:30.832Z,1017.11
2022-09-01T22:48:38.551Z,1017.09
2022-09-01T22:53:32.290Z,1017.09
2022-09-01T22:58:33.030Z,1017.10
2022-09-01T23:03:33.747Z,1017.11
2022-09-01T23:08:34.529Z,1017.09
2022-09-01T23:13:35.287Z,1017.05
2022-09-01T23:18:36.067Z,1017.03
2022-09-01T23:23:36.855Z,1017.00
2022-09-01T23:28:37.518Z,1016.98
2022-09-01T23:33:38.275Z,1016.97
2022-09-01T23:38:39.006Z,1016.93
2022-09-01T23:43:39.475Z,1016.92
2022-09-01T23:48:40.230Z,1016.92
2022-09-01T23:53:41.146Z,1016.89
2022-09-01T23:58:41.821Z,1016.88
